Time;durP1;ratioP1;P1;durP2;ratioP2;P2;SDS_P1;SDS_P2;PMS_P1;PMS_P2;Temp;Humidity;BMP_temperature;BMP_pressure;BME280_temperature;BME280_humidity;BME280_pressure;Samples;Min_cycle;Max_cycle;Signal;HPM_P1;HPM_P2
2024/02/21 00:02:23;;;;;;;37.63;14.20;;;10.10;88.20;;;;;;9178189;19;20807;-69
2024/02/21 00:05:30;;;;;;;35.70;15.45;;;10.10;88.60;;;;;;9179717;19;20025;-70
2024/02/21 00:08:39;;;;;;;38.58;15.30;;;10.10;88.20;;;;;;9173231;19;20098;-71
2024/02/21 00:11:47;;;;;;;31.85;13.90;;;10.10;88.50;;;;;;9179298;19;20022;-69
2024/02/21 00:14:53;;;;;;;38.30;13.80;;;10.10;88.70;;;;;;9180290;19;20026;-69
2024/02/21 00:18:00;;;;;;;33.15;13.75;;;10.20;88.80;;;;;;9178696;19;20015;-70
2024/02/21 00:21:07;;;;;;;39.33;14.07;;;10.20;88.50;;;;;;9176155;19;20547;-70
2024/02/21 00:24:17;;;;;;;35.58;15.02;;;10.10;88.30;;;;;;9178301;19;20095;-69
2024/02/21 00:27:22;;;;;;;42.90;14.90;;;10.10;88.20;;;;;;9178206;19;20015;-68
2024/02/21 00:30:30;;;;;;;32.20;13.70;;;10.20;88.30;;;;;;9179624;19;20667;-68
2024/02/21 00:33:35;;;;;;;34.25;13.30;;;10.20;88.40;;;;;;9177958;19;20028;-69
2024/02/21 00:36:43;;;;;;;47.03;13.73;;;10.20;88.40;;;;;;9177423;19;20018;-69
2024/02/21 00:39:51;;;;;;;33.80;14.38;;;10.20;88.20;;;;;;9176089;19;20757;-69
2024/02/21 00:42:58;;;;;;;38.08;13.98;;;10.30;88.30;;;;;;9175101;19;20506;-68
2024/02/21 00:46:04;;;;;;;36.08;14.20;;;10.20;88.30;;;;;;9175732;19;20018;-69
2024/02/21 00:49:12;;;;;;;40.22;12.93;;;10.20;88.40;;;;;;9174438;19;20020;-68
2024/02/21 00:52:17;;;;;;;33.22;12.00;;;10.30;88.70;;;;;;9177459;19;20014;-68
2024/02/21 00:55:28;;;;;;;33.00;12.93;;;10.30;88.80;;;;;;9174785;19;20023;-68
2024/02/21 00:58:33;;;;;;;26.25;12.55;;;10.20;88.40;;;;;;9175977;19;20015;-68
2024/02/21 01:01:42;;;;;;;31.63;12.15;;;10.20;88.60;;;;;;9175722;19;20021;-70
2024/02/21 01:04:48;;;;;;;37.53;12.85;;;10.20;88.40;;;;;;9176560;19;20013;-69
2024/02/21 01:07:55;;;;;;;36.40;13.30;;;10.20;88.40;;;;;;9167305;19;20017;-69
2024/02/21 01:11:03;;;;;;;34.10;13.68;;;10.30;88.40;;;;;;9174770;19;20018;-70
2024/02/21 01:14:11;;;;;;;32.85;12.93;;;10.30;88.40;;;;;;9177372;19;20416;-70
2024/02/21 01:17:17;;;;;;;36.50;12.45;;;10.20;88.10;;;;;;9175938;19;20014;-68
2024/02/21 01:20:24;;;;;;;25.65;11.40;;;10.20;88.30;;;;;;9176354;19;20033;-68
2024/02/21 01:23:30;;;;;;;31.92;11.85;;;10.20;88.40;;;;;;9174361;19;20006;-69
2024/02/21 01:26:40;;;;;;;30.80;12.82;;;10.20;88.40;;;;;;9173570;19;20010;-68
2024/02/21 01:29:46;;;;;;;28.85;12.25;;;10.30;88.30;;;;;;9173506;19;20598;-68
2024/02/21 01:32:54;;;;;;;34.47;12.85;;;10.30;88.40;;;;;;9171861;19;20458;-69
2024/02/21 01:35:59;;;;;;;28.75;13.05;;;10.20;88.10;;;;;;9171561;19;20014;-69
2024/02/21 01:39:07;;;;;;;25.05;10.75;;;10.30;88.20;;;;;;9172441;19;20116;-69
2024/02/21 01:42:16;;;;;;;27.60;10.88;;;10.50;88.40;;;;;;9170535;19;20019;-69
2024/02/21 01:45:28;;;;;;;34.63;12.23;;;10.30;88.40;;;;;;9170615;19;20012;-69
2024/02/21 01:48:34;;;;;;;27.77;11.00;;;10.30;88.40;;;;;;9171160;19;20018;-69
2024/02/21 01:51:42;;;;;;;31.30;11.18;;;10.20;88.30;;;;;;9169840;19;20019;-69
2024/02/21 01:54:50;;;;;;;30.75;11.50;;;10.20;88.30;;;;;;9171322;19;20595;-69
2024/02/21 01:58:00;;;;;;;28.75;10.85;;;10.30;88.40;;;;;;9171597;19;20526;-69
2024/02/21 02:01:06;;;;;;;30.77;10.60;;;10.20;88.30;;;;;;9168359;19;20019;-69
2024/02/21 02:04:34;;;;;;;26.63;11.82;;;10.20;88.30;;;;;;9170563;19;20074;-69
2024/02/21 02:07:39;;;;;;;40.80;11.48;;;10.20;88.30;;;;;;9164376;19;20023;-69
2024/02/21 02:10:47;;;;;;;31.88;11.32;;;10.30;88.60;;;;;;9171700;19;20018;-69
2024/02/21 02:13:55;;;;;;;35.13;12.40;;;10.20;88.30;;;;;;9167842;19;20022;-69
2024/02/21 02:17:03;;;;;;;33.58;10.65;;;10.30;88.50;;;;;;9170095;19;20018;-69
2024/02/21 02:20:10;;;;;;;27.70;10.73;;;10.30;88.30;;;;;;9170491;19;20018;-70
2024/02/21 02:23:26;;;;;;;34.05;11.32;;;10.20;88.10;;;;;;9171917;19;20015;-70
2024/02/21 02:26:33;;;;;;;40.05;12.20;;;10.20;88.20;;;;;;9169671;19;20022;-70
2024/02/21 02:29:41;;;;;;;29.92;11.15;;;10.20;88.20;;;;;;9166717;19;20028;-70
2024/02/21 02:32:48;;;;;;;39.67;12.23;;;10.20;88.10;;;;;;9169401;19;20022;-70
2024/02/21 02:35:56;;;;;;;26.70;10.43;;;10.20;88.30;;;;;;9164181;19;20034;-70
2024/02/21 02:39:04;;;;;;;24.58;11.45;;;10.30;88.30;;;;;;9170425;19;20019;-70
2024/02/21 02:42:11;;;;;;;29.63;11.80;;;10.20;88.40;;;;;;9170683;19;20487;-70
2024/02/21 02:45:18;;;;;;;31.35;11.55;;;10.20;88.10;;;;;;9170310;19;20019;-70
2024/02/21 02:48:25;;;;;;;24.55;11.05;;;10.20;88.80;;;;;;9167726;19;20007;-70
2024/02/21 02:51:31;;;;;;;27.95;11.02;;;10.20;88.30;;;;;;9170386;19;20473;-70
2024/02/21 02:54:41;;;;;;;26.95;10.35;;;10.30;88.30;;;;;;9167025;19;20653;-70
2024/02/21 02:57:47;;;;;;;27.13;10.40;;;10.20;88.50;;;;;;9165216;19;20014;-69
2024/02/21 03:00:54;;;;;;;25.55;10.85;;;10.30;88.50;;;;;;9170940;19;20480;-68
2024/02/21 03:04:00;;;;;;;28.85;10.55;;;10.30;88.40;;;;;;9180093;19;20048;-68
2024/02/21 03:07:08;;;;;;;35.17;11.80;;;10.30;88.20;;;;;;9175624;19;20021;-69
2024/02/21 03:10:16;;;;;;;29.95;10.73;;;10.30;88.20;;;;;;9177159;19;20033;-68
2024/02/21 03:13:25;;;;;;;26.05;11.30;;;10.30;88.30;;;;;;9180445;19;20025;-70
2024/02/21 03:16:31;;;;;;;25.13;10.45;;;10.30;88.40;;;;;;9179249;19;20146;-70
2024/02/21 03:19:38;;;;;;;30.42;10.95;;;10.30;88.30;;;;;;9181951;19;20010;-68
2024/02/21 03:22:44;;;;;;;31.10;10.82;;;10.30;88.50;;;;;;9178591;19;20065;-69
2024/02/21 03:25:54;;;;;;;30.10;11.45;;;10.30;88.60;;;;;;9179958;19;20243;-68
2024/02/21 03:29:00;;;;;;;32.55;11.55;;;10.40;88.60;;;;;;9180251;19;20115;-68
2024/02/21 03:32:07;;;;;;;28.88;10.82;;;10.40;88.60;;;;;;9176690;19;20026;-68
2024/02/21 03:35:13;;;;;;;35.05;11.20;;;10.30;88.90;;;;;;9181957;19;20043;-68
2024/02/21 03:38:22;;;;;;;24.80;10.52;;;10.30;88.40;;;;;;9180081;19;20014;-68
2024/02/21 03:41:31;;;;;;;26.55;10.65;;;10.30;88.60;;;;;;9179417;19;20059;-68
2024/02/21 03:44:39;;;;;;;25.73;11.43;;;10.30;88.50;;;;;;9178398;19;20021;-68
2024/02/21 03:47:45;;;;;;;40.60;11.60;;;10.30;88.70;;;;;;9176550;19;20029;-70
2024/02/21 03:50:52;;;;;;;35.53;11.55;;;10.40;88.60;;;;;;9177978;19;20021;-68
2024/02/21 03:53:58;;;;;;;27.20;11.15;;;10.30;88.50;;;;;;9176675;19;20022;-70
2024/02/21 03:57:08;;;;;;;31.83;10.30;;;10.20;88.30;;;;;;9177538;19;20468;-69
2024/02/21 04:00:14;;;;;;;27.52;11.18;;;10.20;88.50;;;;;;9176133;19;20022;-69
2024/02/21 04:03:22;;;;;;;33.50;11.35;;;10.20;88.30;;;;;;9179218;19;20015;-70
2024/02/21 04:06:28;;;;;;;33.78;12.05;;;10.20;88.50;;;;;;9172033;19;20461;-68
2024/02/21 04:09:35;;;;;;;26.05;11.07;;;10.20;88.40;;;;;;9174189;19;20487;-71
2024/02/21 04:12:44;;;;;;;33.92;11.25;;;10.30;88.60;;;;;;9177900;19;20037;-68
2024/02/21 04:15:51;;;;;;;29.45;11.18;;;10.20;88.60;;;;;;9175773;19;20468;-71
2024/02/21 04:18:57;;;;;;;29.50;11.45;;;10.20;88.70;;;;;;9178258;19;20022;-68
2024/02/21 04:22:04;;;;;;;19.45;10.05;;;10.20;89.00;;;;;;9175641;19;20095;-68
2024/02/21 04:25:11;;;;;;;33.22;11.85;;;10.20;88.70;;;;;;9178223;19;20081;-70
2024/02/21 04:28:21;;;;;;;30.10;12.38;;;10.10;88.60;;;;;;9177840;19;20378;-70
2024/02/21 04:31:26;;;;;;;30.13;11.25;;;10.20;88.70;;;;;;9172628;19;20022;-70
2024/02/21 04:34:34;;;;;;;28.08;10.40;;;10.20;88.70;;;;;;9178612;19;20015;-70
2024/02/21 04:37:40;;;;;;;24.00;10.85;;;10.20;88.60;;;;;;9176127;19;20360;-70
2024/02/21 04:40:47;;;;;;;30.92;11.15;;;10.20;88.60;;;;;;9178685;19;20018;-70
2024/02/21 04:43:56;;;;;;;27.70;11.52;;;10.20;88.70;;;;;;9176763;19;20022;-72
2024/02/21 04:47:03;;;;;;;34.03;11.80;;;10.20;88.80;;;;;;9177364;19;20373;-71
2024/02/21 04:50:09;;;;;;;26.80;12.15;;;10.20;88.70;;;;;;9175933;19;20015;-70
2024/02/21 04:53:18;;;;;;;25.23;11.65;;;10.20;88.60;;;;;;9178235;19;20046;-70
2024/02/21 04:56:24;;;;;;;34.47;11.55;;;10.20;89.10;;;;;;9177592;19;20496;-70
2024/02/21 04:59:35;;;;;;;27.70;11.13;;;10.20;88.70;;;;;;9176902;19;20014;-70
2024/02/21 05:02:40;;;;;;;22.58;10.30;;;10.10;88.70;;;;;;9176026;19;20019;-70
2024/02/21 05:05:47;;;;;;;33.58;11.45;;;10.10;88.80;;;;;;9172264;19;20019;-70
2024/02/21 05:08:55;;;;;;;31.05;11.63;;;10.10;88.80;;;;;;9174871;19;20009;-70
2024/02/21 05:12:02;;;;;;;21.27;11.13;;;10.10;88.80;;;;;;9176454;19;20014;-70
2024/02/21 05:15:11;;;;;;;31.42;11.00;;;10.10;88.80;;;;;;9174895;19;20029;-70
2024/02/21 05:18:19;;;;;;;32.50;11.25;;;10.10;89.10;;;;;;9174736;19;20014;-70
2024/02/21 05:21:28;;;;;;;32.15;12.32;;;10.10;88.70;;;;;;9176838;19;20015;-70
2024/02/21 05:24:36;;;;;;;34.72;12.95;;;10.10;88.70;;;;;;9176073;19;20389;-70
2024/02/21 05:27:41;;;;;;;35.60;12.57;;;10.10;88.80;;;;;;9176094;19;20006;-70
2024/02/21 05:30:51;;;;;;;28.65;11.52;;;10.10;88.80;;;;;;9175126;19;20018;-70
2024/02/21 05:33:57;;;;;;;32.45;11.63;;;10.10;88.90;;;;;;9176676;19;21018;-70
2024/02/21 05:37:08;;;;;;;32.13;12.95;;;10.10;88.90;;;;;;9173277;19;20025;-70
2024/02/21 05:40:14;;;;;;;35.20;11.27;;;10.10;88.90;;;;;;9172913;19;20768;-70
2024/02/21 05:43:22;;;;;;;25.88;10.27;;;10.00;88.70;;;;;;9174105;19;20010;-70
2024/02/21 05:46:30;;;;;;;26.38;10.30;;;10.10;88.90;;;;;;9173412;19;20014;-70
2024/02/21 05:49:38;;;;;;;20.58;10.10;;;10.10;88.90;;;;;;9173787;19;20034;-70
2024/02/21 05:52:43;;;;;;;26.15;10.23;;;10.10;88.80;;;;;;9175784;19;20018;-70
2024/02/21 05:55:51;;;;;;;22.60;9.45;;;10.10;88.90;;;;;;9173977;19;20018;-70
2024/02/21 05:58:57;;;;;;;26.70;9.20;;;10.00;88.80;;;;;;9169111;19;20057;-70
2024/02/21 06:02:07;;;;;;;21.05;8.82;;;10.20;89.00;;;;;;9174133;19;20018;-69
2024/02/21 06:05:13;;;;;;;25.58;9.25;;;10.10;89.00;;;;;;9173369;19;20011;-69
2024/02/21 06:08:21;;;;;;;23.05;9.52;;;10.10;88.80;;;;;;9169046;19;20066;-69
2024/02/21 06:11:26;;;;;;;33.72;9.75;;;10.10;88.90;;;;;;9170692;19;20058;-69
2024/02/21 06:14:34;;;;;;;27.15;9.48;;;10.00;88.80;;;;;;9171731;19;20015;-69
2024/02/21 06:17:42;;;;;;;19.08;8.18;;;10.10;88.90;;;;;;9172696;19;20018;-69
2024/02/21 06:20:50;;;;;;;22.10;8.52;;;10.20;89.30;;;;;;9174485;19;20464;-69
2024/02/21 06:23:55;;;;;;;22.52;10.20;;;10.00;88.60;;;;;;9171894;19;20022;-69
2024/02/21 06:27:03;;;;;;;23.27;9.00;;;10.10;88.80;;;;;;9173399;19;20025;-69
2024/02/21 06:30:11;;;;;;;29.92;9.32;;;10.10;88.80;;;;;;9173520;19;20034;-69
2024/02/21 06:33:24;;;;;;;28.55;9.30;;;10.00;88.70;;;;;;9171357;19;20014;-69
2024/02/21 06:36:30;;;;;;;21.13;8.93;;;10.10;88.90;;;;;;9174921;19;20048;-69
2024/02/21 06:39:40;;;;;;;21.00;8.73;;;10.10;88.80;;;;;;9180908;19;20023;-68
2024/02/21 06:42:46;;;;;;;19.50;8.95;;;10.10;88.80;;;;;;9182322;19;20018;-69
2024/02/21 06:45:54;;;;;;;24.45;9.38;;;10.00;88.70;;;;;;9180854;19;20018;-69
2024/02/21 06:49:03;;;;;;;18.10;9.35;;;10.00;88.80;;;;;;9181046;19;20019;-69
2024/02/21 06:52:11;;;;;;;19.13;8.65;;;10.10;89.40;;;;;;9177514;19;20893;-68
2024/02/21 06:55:16;;;;;;;18.15;8.27;;;10.10;89.20;;;;;;9177577;19;20048;-69
2024/02/21 06:58:24;;;;;;;23.27;9.32;;;10.10;89.10;;;;;;9180035;19;20494;-69
2024/02/21 07:01:30;;;;;;;24.58;9.23;;;10.00;88.60;;;;;;9178766;19;20014;-68
2024/02/21 07:04:40;;;;;;;24.10;9.90;;;10.00;88.70;;;;;;9176993;19;20066;-69
2024/02/21 07:07:46;;;;;;;21.05;9.88;;;10.10;88.90;;;;;;9173026;19;20480;-69
2024/02/21 07:10:53;;;;;;;27.15;9.02;;;10.00;88.60;;;;;;9176018;19;20014;-69
2024/02/21 07:13:59;;;;;;;35.30;12.27;;;10.00;88.80;;;;;;9180368;19;20709;-68
2024/02/21 07:17:06;;;;;;;17.38;7.88;;;10.10;88.80;;;;;;9179199;19;20392;-68
2024/02/21 07:20:15;;;;;;;17.40;8.27;;;10.10;89.00;;;;;;9180336;19;20014;-69
2024/02/21 07:23:23;;;;;;;23.08;7.90;;;10.00;88.60;;;;;;9179100;19;20495;-69
2024/02/21 07:26:28;;;;;;;18.15;7.97;;;10.00;88.80;;;;;;9178828;19;20018;-69
2024/02/21 07:29:36;;;;;;;19.90;8.23;;;10.20;88.90;;;;;;9178673;19;20013;-71
2024/02/21 07:32:41;;;;;;;19.45;9.18;;;10.00;89.40;;;;;;9176634;19;20198;-69
2024/02/21 07:35:52;;;;;;;19.02;7.70;;;10.10;89.20;;;;;;9179768;19;20018;-70
2024/02/21 07:38:57;;;;;;;15.32;6.88;;;10.00;88.60;;;;;;9179546;19;20015;-68
2024/02/21 07:42:06;;;;;;;15.07;6.82;;;10.10;88.90;;;;;;9179541;19;20018;-69
2024/02/21 07:45:11;;;;;;;18.85;7.68;;;10.10;88.80;;;;;;9175923;19;20026;-68
2024/02/21 07:48:24;;;;;;;17.63;8.48;;;10.20;88.90;;;;;;9175026;19;20037;-69
2024/02/21 07:51:33;;;;;;;13.15;6.82;;;10.10;88.70;;;;;;9179062;19;20018;-68
2024/02/21 07:54:41;;;;;;;19.08;5.82;;;10.10;88.70;;;;;;9180610;19;20060;-70
2024/02/21 07:57:49;;;;;;;17.88;7.57;;;10.10;88.60;;;;;;9177271;19;20014;-69
2024/02/21 08:00:57;;;;;;;22.40;7.22;;;10.10;88.80;;;;;;9179020;19;20010;-69
2024/02/21 08:04:03;;;;;;;17.60;6.53;;;10.00;88.70;;;;;;9176733;19;20026;-68
2024/02/21 08:07:13;;;;;;;21.42;6.93;;;10.10;88.60;;;;;;9173513;19;20025;-68
2024/02/21 08:10:19;;;;;;;22.02;8.15;;;10.10;88.60;;;;;;9178858;19;20972;-68
2024/02/21 08:13:28;;;;;;;23.05;8.50;;;10.10;88.60;;;;;;9176190;19;20477;-68
2024/02/21 08:16:34;;;;;;;21.20;8.30;;;10.10;89.10;;;;;;9178319;19;20396;-70
2024/02/21 08:19:42;;;;;;;16.40;7.60;;;10.10;88.60;;;;;;9177690;19;20021;-71
2024/02/21 08:22:50;;;;;;;24.77;8.10;;;10.10;88.80;;;;;;9177456;19;20022;-69
2024/02/21 08:25:57;;;;;;;24.15;7.65;;;10.10;88.50;;;;;;9177519;19;20019;-69
2024/02/21 08:29:03;;;;;;;20.30;8.32;;;10.10;88.50;;;;;;9177025;19;20029;-71
2024/02/21 08:32:10;;;;;;;19.67;8.10;;;10.20;88.70;;;;;;9176600;19;20033;-69
2024/02/21 08:35:18;;;;;;;22.60;7.97;;;10.20;89.00;;;;;;9174254;19;20483;-69
2024/02/21 08:38:28;;;;;;;24.00;8.00;;;10.10;88.50;;;;;;9176325;19;20015;-69
2024/02/21 08:41:34;;;;;;;26.23;8.05;;;10.20;88.80;;;;;;9173846;19;20030;-69
2024/02/21 08:45:01;;;;;;;20.35;8.38;;;10.20;88.60;;;;;;9173098;19;20041;-69
2024/02/21 08:48:08;;;;;;;20.40;8.20;;;10.20;88.50;;;;;;9173989;19;20026;-69
2024/02/21 08:51:16;;;;;;;23.23;8.23;;;10.20;88.40;;;;;;9175054;19;20014;-69
2024/02/21 08:54:25;;;;;;;16.10;7.25;;;10.20;88.50;;;;;;9176635;19;20030;-69
2024/02/21 08:57:36;;;;;;;19.83;7.80;;;10.30;88.50;;;;;;9176148;19;20037;-69
2024/02/21 09:00:41;;;;;;;17.60;8.00;;;10.30;88.50;;;;;;9176507;19;20545;-69
2024/02/21 09:03:53;;;;;;;29.67;8.52;;;10.40;88.80;;;;;;9176290;19;20653;-68
2024/02/21 09:06:59;;;;;;;19.77;6.93;;;10.40;88.60;;;;;;9170314;19;20025;-68
2024/02/21 09:10:11;;;;;;;24.95;7.78;;;10.40;88.50;;;;;;9176725;19;20026;-69
2024/02/21 09:13:16;;;;;;;30.20;6.63;;;10.40;88.50;;;;;;9174580;19;20022;-69
2024/02/21 09:16:24;;;;;;;17.42;6.93;;;10.40;89.00;;;;;;9176422;19;20018;-71
2024/02/21 09:19:30;;;;;;;18.77;6.65;;;10.40;88.60;;;;;;9177099;19;20007;-73
2024/02/21 09:22:39;;;;;;;17.67;6.57;;;10.50;88.40;;;;;;9177067;19;20018;-70
2024/02/21 09:25:48;;;;;;;21.58;7.13;;;10.50;88.70;;;;;;9175149;19;20362;-70
2024/02/21 09:28:56;;;;;;;20.05;7.00;;;10.50;88.80;;;;;;9176185;19;20507;-69
2024/02/21 09:32:02;;;;;;;21.30;6.68;;;10.70;88.80;;;;;;9172209;19;20491;-69
2024/02/21 09:35:12;;;;;;;20.55;7.47;;;10.60;88.80;;;;;;9171947;19;20029;-69
2024/02/21 09:38:18;;;;;;;18.42;7.25;;;10.60;88.40;;;;;;9176972;19;20094;-70
2024/02/21 09:41:29;;;;;;;23.45;7.25;;;10.70;88.50;;;;;;9176959;19;20369;-69
2024/02/21 09:44:39;;;;;;;15.85;6.53;;;10.70;88.50;;;;;;9172279;19;20022;-69
2024/02/21 09:48:00;;;;;;;21.95;7.90;;;10.70;88.50;;;;;;9176257;19;20010;-69
2024/02/21 09:51:07;;;;;;;20.33;7.18;;;10.80;88.40;;;;;;9175585;19;20032;-70
2024/02/21 09:54:15;;;;;;;19.02;7.00;;;10.70;88.10;;;;;;9172225;19;20030;-70
2024/02/21 09:57:25;;;;;;;19.48;6.70;;;10.80;88.20;;;;;;9174858;19;20052;-69
2024/02/21 10:00:33;;;;;;;16.08;6.68;;;10.80;88.60;;;;;;9175592;19;20014;-69
2024/02/21 10:03:39;;;;;;;15.05;7.18;;;10.80;88.10;;;;;;9175053;19;20022;-69
2024/02/21 10:06:47;;;;;;;13.10;6.28;;;10.90;88.10;;;;;;9169548;19;20626;-69
2024/02/21 10:10:03;;;;;;;21.27;6.70;;;10.80;88.30;;;;;;9175159;19;20015;-69
2024/02/21 10:13:26;;;;;;;25.15;7.70;;;10.90;88.10;;;;;;9170670;19;20026;-69
2024/02/21 10:16:32;;;;;;;17.60;6.88;;;10.80;87.70;;;;;;9173696;19;20011;-69
2024/02/21 10:19:39;;;;;;;15.77;6.82;;;10.80;87.70;;;;;;9174974;19;20758;-69
2024/02/21 10:22:46;;;;;;;19.80;7.32;;;10.90;88.10;;;;;;9174996;19;20373;-69
2024/02/21 10:25:53;;;;;;;15.85;6.13;;;10.90;88.50;;;;;;9175059;19;20476;-69
2024/02/21 10:29:04;;;;;;;16.60;6.15;;;10.90;88.30;;;;;;9174144;19;20025;-69
2024/02/21 10:32:13;;;;;;;19.80;6.05;;;11.00;87.90;;;;;;9172843;19;20014;-69
2024/02/21 10:35:28;;;;;;;15.30;6.82;;;10.90;87.90;;;;;;9173062;19;20055;-69
2024/02/21 10:38:38;;;;;;;15.88;6.50;;;11.00;87.70;;;;;;9172369;19;20017;-69
2024/02/21 10:41:44;;;;;;;14.82;6.63;;;11.00;87.90;;;;;;9167554;19;20022;-69
2024/02/21 10:44:55;;;;;;;12.52;5.88;;;11.10;87.90;;;;;;9169688;19;20025;-69
2024/02/21 10:48:11;;;;;;;16.27;6.00;;;11.00;87.80;;;;;;9169543;19;20398;-70
2024/02/21 10:51:20;;;;;;;17.48;6.18;;;11.10;88.10;;;;;;9169961;19;20019;-69
2024/02/21 10:54:42;;;;;;;15.82;6.78;;;11.10;87.90;;;;;;9169296;19;20438;-69
2024/02/21 10:57:50;;;;;;;;;;;11.10;87.70;;;;;;9172532;19;20018;-69
2024/02/21 11:00:58;;;;;;;11.63;5.07;;;11.10;87.70;;;;;;9170905;19;19926;-69
2024/02/21 11:04:08;;;;;;;10.80;5.50;;;11.10;87.70;;;;;;9169978;19;20014;-69
2024/02/21 11:07:14;;;;;;;14.13;6.57;;;11.20;87.60;;;;;;9166361;19;20022;-69
2024/02/21 11:10:26;;;;;;;11.98;4.88;;;11.20;87.60;;;;;;9170267;19;20019;-69
2024/02/21 11:13:37;;;;;;;16.48;5.07;;;11.20;87.70;;;;;;9169703;19;20021;-69
2024/02/21 11:16:48;;;;;;;12.82;5.75;;;11.30;87.50;;;;;;9171128;19;20034;-69
2024/02/21 11:19:54;;;;;;;11.38;5.45;;;11.30;87.60;;;;;;9170314;19;20015;-70
2024/02/21 11:23:02;;;;;;;14.18;4.20;;;11.30;87.70;;;;;;9172694;19;20515;-69
2024/02/21 11:26:09;;;;;;;12.55;4.20;;;11.30;87.30;;;;;;9179941;19;20018;-69
2024/02/21 11:29:26;;;;;;;8.15;3.83;;;11.30;87.30;;;;;;9182056;19;20019;-70
2024/02/21 11:32:34;;;;;;;10.15;4.65;;;11.30;87.20;;;;;;9176882;19;20018;-70
2024/02/21 11:35:42;;;;;;;9.20;3.70;;;11.30;87.20;;;;;;9178497;19;20018;-70
2024/02/21 11:38:47;;;;;;;10.07;3.35;;;11.40;87.70;;;;;;9179567;19;20011;-69
2024/02/21 11:42:05;;;;;;;12.30;3.50;;;11.40;87.20;;;;;;9181037;19;20499;-69
2024/02/21 11:45:12;;;;;;;8.07;2.60;;;11.40;87.00;;;;;;9178369;19;20033;-69
2024/02/21 11:48:23;;;;;;;3.33;2.42;;;11.40;87.50;;;;;;9180623;19;20029;-69
2024/02/21 11:51:28;;;;;;;4.80;2.40;;;11.40;87.00;;;;;;9180987;19;20547;-69
2024/02/21 11:54:36;;;;;;;4.90;2.40;;;11.50;87.00;;;;;;9178238;19;20011;-69
2024/02/21 11:57:43;;;;;;;5.43;2.42;;;11.40;87.40;;;;;;9178795;19;20014;-69
2024/02/21 12:00:52;;;;;;;7.20;2.35;;;11.40;86.90;;;;;;9179288;19;20017;-69
2024/02/21 12:04:00;;;;;;;3.92;2.78;;;11.40;86.90;;;;;;9178124;19;20014;-69
2024/02/21 12:07:08;;;;;;;7.68;3.60;;;11.40;86.80;;;;;;9169312;19;20014;-70
2024/02/21 12:10:14;;;;;;;4.80;3.28;;;11.30;87.50;;;;;;9175708;19;20015;-69
2024/02/21 12:13:25;;;;;;;7.93;3.30;;;11.30;86.80;;;;;;9174971;19;20030;-69
2024/02/21 12:16:31;;;;;;;7.28;3.10;;;11.40;86.80;;;;;;9177842;19;20488;-70
2024/02/21 12:19:41;;;;;;;8.93;3.70;;;11.30;86.70;;;;;;9178015;19;20627;-69
2024/02/21 12:22:47;;;;;;;9.80;4.28;;;11.40;86.70;;;;;;9176350;19;20491;-70
2024/02/21 12:25:55;;;;;;;7.50;4.30;;;11.40;86.90;;;;;;9176663;19;20014;-71
2024/02/21 12:29:00;;;;;;;7.88;3.58;;;11.20;86.60;;;;;;9176123;19;20029;-71
2024/02/21 12:32:08;;;;;;;14.98;3.97;;;11.30;86.50;;;;;;9177177;19;20014;-69
2024/02/21 12:35:17;;;;;;;8.07;4.53;;;11.30;86.50;;;;;;9171302;19;20022;-71
2024/02/21 12:38:25;;;;;;;13.48;4.40;;;11.20;86.40;;;;;;9174552;19;20017;-70
2024/02/21 12:41:32;;;;;;;12.85;4.47;;;11.30;86.50;;;;;;9178624;19;20101;-70
2024/02/21 12:44:39;;;;;;;15.18;4.95;;;11.20;86.40;;;;;;9176837;19;20019;-70
2024/02/21 12:47:45;;;;;;;14.82;4.63;;;11.20;86.40;;;;;;9176068;19;20039;-69
2024/02/21 12:50:55;;;;;;;15.23;3.97;;;11.20;86.50;;;;;;9175333;19;20007;-70
2024/02/21 12:54:02;;;;;;;12.73;4.47;;;11.20;86.70;;;;;;9172830;19;20022;-70
2024/02/21 12:57:10;;;;;;;12.18;4.22;;;11.20;86.60;;;;;;9173635;19;20018;-70
2024/02/21 13:00:16;;;;;;;8.45;3.97;;;11.20;86.60;;;;;;9172610;19;20024;-70
2024/02/21 13:03:24;;;;;;;12.18;3.97;;;11.10;86.30;;;;;;9174582;19;20055;-70
2024/02/21 13:06:32;;;;;;;9.65;4.20;;;11.20;86.40;;;;;;9169480;19;20018;-70
2024/02/21 13:09:40;;;;;;;11.00;4.40;;;11.20;86.40;;;;;;9173538;19;20018;-69
2024/02/21 13:12:46;;;;;;;13.75;4.50;;;11.10;86.20;;;;;;9173778;19;20045;-69
2024/02/21 13:15:53;;;;;;;10.38;4.05;;;11.10;86.30;;;;;;9170522;19;20019;-70
2024/02/21 13:18:59;;;;;;;10.23;4.25;;;11.10;86.20;;;;;;9171500;19;20011;-70
2024/02/21 13:22:09;;;;;;;14.88;4.80;;;11.20;86.20;;;;;;9175238;19;20024;-69
2024/02/21 13:25:18;;;;;;;16.48;3.80;;;11.10;86.00;;;;;;9176894;19;20133;-70
2024/02/21 13:28:25;;;;;;;8.63;3.95;;;11.10;86.10;;;;;;9175558;19;20025;-70
2024/02/21 13:31:34;;;;;;;14.57;4.10;;;11.10;86.30;;;;;;9176082;19;20023;-71
2024/02/21 13:34:42;;;;;;;10.63;4.47;;;11.10;86.50;;;;;;9174835;19;20029;-70
2024/02/21 13:37:50;;;;;;;10.95;3.95;;;11.20;86.40;;;;;;9176310;19;20022;-71
2024/02/21 13:41:00;;;;;;;10.85;4.07;;;11.20;86.40;;;;;;9176529;19;20023;-73
2024/02/21 13:44:06;;;;;;;9.65;3.95;;;11.20;86.40;;;;;;9175139;19;20641;-70
2024/02/21 13:47:16;;;;;;;11.90;3.22;;;11.20;86.30;;;;;;9176236;19;20019;-70
2024/02/21 13:50:24;;;;;;;17.48;4.38;;;11.30;86.20;;;;;;9175274;19;20017;-70
2024/02/21 13:53:38;;;;;;;11.13;4.57;;;11.30;86.10;;;;;;9175210;19;20025;-70
2024/02/21 13:56:43;;;;;;;16.10;4.32;;;11.30;86.00;;;;;;9171416;19;20014;-71
2024/02/21 13:59:51;;;;;;;13.38;4.55;;;11.40;86.10;;;;;;9175468;19;19998;-71
2024/02/21 14:02:57;;;;;;;8.90;3.83;;;11.30;86.00;;;;;;9175583;19;20014;-71
2024/02/21 14:06:06;;;;;;;9.63;3.60;;;11.40;85.90;;;;;;9170567;19;20022;-70
2024/02/21 14:09:14;;;;;;;15.55;3.35;;;11.40;85.90;;;;;;9171140;19;20018;-71
2024/02/21 14:12:21;;;;;;;9.20;3.75;;;11.50;86.00;;;;;;9175413;19;20029;-70
2024/02/21 14:15:27;;;;;;;12.32;3.72;;;11.20;86.10;;;;;;9174531;19;20014;-72
2024/02/21 14:18:35;;;;;;;10.35;3.78;;;11.40;85.80;;;;;;9176663;19;20010;-70
2024/02/21 14:21:40;;;;;;;15.05;4.63;;;11.40;85.70;;;;;;9175457;19;20037;-68
2024/02/21 14:24:50;;;;;;;12.93;3.58;;;11.60;85.90;;;;;;9172112;19;20034;-69
2024/02/21 14:27:56;;;;;;;10.15;3.55;;;11.50;85.80;;;;;;9172828;19;20815;-70
2024/02/21 14:31:05;;;;;;;10.57;3.60;;;11.50;85.70;;;;;;9172790;19;20472;-69
2024/02/21 14:34:11;;;;;;;10.43;3.95;;;11.60;85.70;;;;;;9174330;19;20426;-70
2024/02/21 14:37:19;;;;;;;11.57;3.78;;;11.60;85.50;;;;;;9173523;19;20026;-70
2024/02/21 14:40:29;;;;;;;12.43;3.50;;;11.60;85.60;;;;;;9173560;19;20492;-70
2024/02/21 14:43:37;;;;;;;10.73;4.22;;;11.60;85.60;;;;;;9173774;19;20011;-70
2024/02/21 14:46:43;;;;;;;9.43;3.35;;;11.60;85.40;;;;;;9171516;19;20101;-70
2024/02/21 14:49:50;;;;;;;9.57;3.88;;;11.60;85.60;;;;;;9174456;19;20361;-70
2024/02/21 14:52:56;;;;;;;13.98;3.70;;;11.60;85.50;;;;;;9173531;19;20025;-70
2024/02/21 14:56:06;;;;;;;11.27;3.55;;;11.60;85.20;;;;;;9169975;19;20017;-70
2024/02/21 14:59:12;;;;;;;17.27;4.10;;;11.60;85.40;;;;;;9178770;19;20480;-70
2024/02/21 15:02:31;;;;;;;16.48;3.63;;;11.60;85.20;;;;;;9183744;19;20015;-70
2024/02/21 15:05:39;;;;;;;9.25;3.65;;;11.60;85.20;;;;;;9183348;19;20010;-70
2024/02/21 15:08:48;;;;;;;15.77;3.75;;;11.60;85.20;;;;;;9179731;19;20021;-70
2024/02/21 15:11:56;;;;;;;12.73;3.50;;;11.60;85.20;;;;;;9182521;19;20037;-69
2024/02/21 15:15:04;;;;;;;12.68;3.33;;;11.60;85.20;;;;;;9182382;19;20029;-70
2024/02/21 15:18:10;;;;;;;13.20;4.10;;;11.70;84.90;;;;;;9182193;19;20010;-70
2024/02/21 15:21:18;;;;;;;18.27;3.75;;;11.70;85.10;;;;;;9180377;19;20015;-70
2024/02/21 15:24:24;;;;;;;13.40;4.05;;;11.60;84.80;;;;;;9182400;19;20018;-70
2024/02/21 15:27:35;;;;;;;12.57;3.40;;;11.60;85.00;;;;;;9182487;19;20019;-70
2024/02/21 15:30:44;;;;;;;12.90;3.70;;;11.60;84.60;;;;;;9180559;19;20365;-70
2024/02/21 15:33:52;;;;;;;9.95;3.03;;;11.70;85.00;;;;;;9181638;19;20372;-69
2024/02/21 15:36:59;;;;;;;10.10;3.42;;;11.60;84.80;;;;;;9177619;19;20423;-68
2024/02/21 15:40:08;;;;;;;15.13;3.40;;;11.60;84.50;;;;;;9181054;19;20014;-70
2024/02/21 15:43:17;;;;;;;14.15;3.40;;;11.50;84.60;;;;;;9179958;19;20035;-69
2024/02/21 15:46:25;;;;;;;10.23;3.10;;;11.60;84.80;;;;;;9179906;19;20406;-69
2024/02/21 15:49:31;;;;;;;15.35;4.20;;;11.50;84.50;;;;;;9180745;19;20499;-69
2024/02/21 15:52:39;;;;;;;14.52;2.90;;;11.50;84.60;;;;;;9181111;19;20502;-69
2024/02/21 15:55:45;;;;;;;10.27;3.58;;;11.50;84.20;;;;;;9180696;19;20460;-69
2024/02/21 15:58:56;;;;;;;13.23;3.72;;;11.50;84.40;;;;;;9179744;19;20453;-68
2024/02/21 16:02:02;;;;;;;26.42;5.85;;;11.50;84.20;;;;;;9180651;19;20419;-69